Aérodrome :
LOGIN :

S'inscrire | Disclaimer

   EN    FR    IT 

 










Légende :    VFR   VFR Marginal   IFR   IFR Intensif   IFR Très Intensif
Visi : 
Plafond : 
>= 8 km
>= 3000ft
5 à 8 km
1000 à 3000 ft
1500m à 5 km
500 à 1000 ft
800 à 1500m
200 à 500 ft
< 800m
< 200 ft
Symboles :   Orages  Brouillard  Fortes neiges  Fortes précipitations  Vent > 20 kt
SIGMETs :   Divers  Orages  Givrage  Turbulence  Onde Orograph.  Cendres Volcan.






- Altitude de l'aérodrome : 218 ft


EGYD - RAF Cranwell

DERNIER METAR :
  • 251522Z 24016KT 9999 FEW025CB SCT250 07/01 Q0993 TEMPO 7000 SHRA SCT018 BKN030CB RMK BLU TEMPO WHT

METARs EXPIRÉS :
  • 251450Z 25017KT 9999 FEW028CB 06/01 Q0994 TEMPO 7000 -SHRA SCT018 BKN028CB RMK BLU TEMPO WHT
  • 251421Z 24017KT 9999 FEW028CB 08/02 Q0994 TEMPO 7000 -SHRA SCT018 BKN030CB RMK BLU TEMPO WHT
  • 251350Z 25016KT 9999 FEW030CB 08/M00 Q0995 TEMPO 7000 -SHRA SCT018 BKN030CB RMK BLU TEMPO WHT
  • 251321Z 26017KT 9999 FEW030CB BKN050 07/00 Q0995 TEMPO 7000 -SHRA SCT018 BKN030CB RMK BLU TEMPO WHT
  • 251250Z 26018KT 9999 SCT035 SCT060 08/00 Q0996 TEMPO 7000 -SHRA SCT020 RMK BLU TEMPO WHT

TAF TAF EGYD
Valide du 25 à 15h jusqu'au 25 à 19h UTC


251346Z 2515/2519 26015KT 9999 FEW025
TEMPO 2515/2519 7000 -SHRA BKN020
PROB30
TEMPO 2515/2519 4000 SHRASN SCT014 BKN020CB



MET'MAP, la Météo Aéronautique d'un coup d'oeil ! - Copyright ORBIFLY Décembre 2007 - Disclaimer

ORBIFLY MET'MAP TEAM :

Programmation & Développement : Alexandra Zaïnal
Sur une idée originale de : Baudouin d'Aumeries
Assistance à la programmation : Marc-Olivier Méhu
Soutien technique & logistique : Manuel Goepfert

Contact : metmap@orbifly.com




SOURCES & CREDITS :

   NOAA